Time;durP1;ratioP1;P1;durP2;ratioP2;P2;SDS_P1;SDS_P2;PMS_P1;PMS_P2;Temp;Humidity;BMP_temperature;BMP_pressure;BME280_temperature;BME280_humidity;BME280_pressure;Samples;Min_cycle;Max_cycle;Signal;HPM_P1;HPM_P2
2022/07/22 00:00:44;;;;;;;18.95;17.15;;;;;;;;;;4933173;29;20321;-82
2022/07/22 00:03:12;;;;;;;18.88;17.00;;;;;;;;;;4937866;29;20227;-82
2022/07/22 00:05:38;;;;;;;19.10;17.42;;;;;;;;;;4937425;29;20238;-84
2022/07/22 00:08:04;;;;;;;21.15;19.23;;;;;;;;;;4954616;28;20234;-81
2022/07/22 00:10:29;;;;;;;20.95;19.13;;;;;;;;;;4934921;29;20245;-82
2022/07/22 00:12:57;;;;;;;22.13;20.23;;;;;;;;;;4943795;29;20590;-81
2022/07/22 00:15:22;;;;;;;22.38;20.38;;;;;;;;;;4964443;28;20322;-82
2022/07/22 00:17:48;;;;;;;23.60;21.65;;;;;;;;;;4924352;29;20713;-83
2022/07/22 00:20:13;;;;;;;25.58;22.52;;;;;;;;;;4937330;28;20219;-85
2022/07/22 00:22:41;;;;;;;24.35;22.15;;;;;;;;;;4948299;29;20223;-82
2022/07/22 00:25:07;;;;;;;24.58;22.48;;;;;;;;;;4958056;29;20231;-81
2022/07/22 00:27:33;;;;;;;22.85;20.77;;;;;;;;;;4961997;28;20641;-81
2022/07/22 00:30:00;;;;;;;24.30;22.13;;;;;;;;;;4915299;29;20235;-83
2022/07/22 00:32:28;;;;;;;27.83;25.02;;;;;;;;;;4921348;29;20227;-81
2022/07/22 00:34:55;;;;;;;27.15;24.55;;;;;;;;;;4956815;28;20700;-80
2022/07/22 00:37:23;;;;;;;28.35;25.65;;;;;;;;;;4930853;28;20237;-81
2022/07/22 00:39:48;;;;;;;28.25;25.50;;;;;;;;;;4930154;29;20230;-81
2022/07/22 00:42:14;;;;;;;28.08;25.40;;;;;;;;;;4942669;28;20649;-81
2022/07/22 00:44:42;;;;;;;30.48;27.63;;;;;;;;;;4941725;29;20281;-81
2022/07/22 00:47:08;;;;;;;33.60;30.38;;;;;;;;;;4926358;29;20218;-84
2022/07/22 00:49:33;;;;;;;38.22;34.10;;;;;;;;;;4945997;29;20222;-82
2022/07/22 00:52:01;;;;;;;38.47;34.13;;;;;;;;;;4936106;29;20258;-79
2022/07/22 00:54:27;;;;;;;38.58;34.50;;;;;;;;;;4955408;28;20722;-80
2022/07/22 00:56:54;;;;;;;40.70;36.40;;;;;;;;;;4926256;29;20225;-80
2022/07/22 00:59:22;;;;;;;40.75;36.08;;;;;;;;;;4927913;28;20234;-82
2022/07/22 01:01:47;;;;;;;45.15;37.65;;;;;;;;;;4915973;29;20238;-82
2022/07/22 01:04:13;;;;;;;45.28;37.83;;;;;;;;;;4917814;29;20227;-83
2022/07/22 01:06:38;;;;;;;41.75;37.33;;;;;;;;;;4915723;29;20216;-82
2022/07/22 01:09:04;;;;;;;44.22;37.35;;;;;;;;;;4942377;28;20222;-83
2022/07/22 01:11:30;;;;;;;45.22;37.38;;;;;;;;;;4943028;28;20305;-81
2022/07/22 01:13:56;;;;;;;33.00;29.45;;;;;;;;;;4943317;29;20231;-81
2022/07/22 01:16:21;;;;;;;30.02;24.33;;;;;;;;;;4899580;28;20763;-84
2022/07/22 01:18:47;;;;;;;22.65;19.80;;;;;;;;;;4928814;29;20230;-86
2022/07/22 01:21:13;;;;;;;23.92;18.55;;;;;;;;;;4944051;28;20227;-84
2022/07/22 01:23:39;;;;;;;16.40;14.68;;;;;;;;;;4918947;29;20225;-81
2022/07/22 01:26:05;;;;;;;14.05;12.10;;;;;;;;;;4927347;28;20229;-81
2022/07/22 01:28:31;;;;;;;12.65;11.30;;;;;;;;;;4914940;29;20215;-84
2022/07/22 01:30:57;;;;;;;10.00;8.90;;;;;;;;;;4918270;29;20708;-84
2022/07/22 01:33:23;;;;;;;8.18;7.45;;;;;;;;;;4915432;28;20366;-81
2022/07/22 01:35:48;;;;;;;8.50;7.60;;;;;;;;;;4922848;29;20826;-81
2022/07/22 01:38:15;;;;;;;7.85;6.70;;;;;;;;;;4956162;28;20214;-83
2022/07/22 01:40:40;;;;;;;6.90;6.20;;;;;;;;;;4924773;29;20223;-84
2022/07/22 01:43:06;;;;;;;9.32;5.68;;;;;;;;;;4913562;28;20239;-81
2022/07/22 01:45:31;;;;;;;6.43;4.32;;;;;;;;;;4923332;29;20218;-86
2022/07/22 01:47:58;;;;;;;4.85;3.80;;;;;;;;;;4907286;29;20269;-84
2022/07/22 01:50:27;;;;;;;5.80;3.25;;;;;;;;;;4917120;29;20233;-83
2022/07/22 01:52:53;;;;;;;3.60;3.30;;;;;;;;;;4923667;29;20608;-84
2022/07/22 01:55:18;;;;;;;4.22;3.03;;;;;;;;;;4924118;28;20226;-80
2022/07/22 01:57:48;;;;;;;4.32;3.20;;;;;;;;;;4911701;29;20231;-83
2022/07/22 02:00:23;;;;;;;3.80;3.45;;;;;;;;;;4955380;28;20570;-82
2022/07/22 02:02:48;;;;;;;4.20;3.90;;;;;;;;;;4917569;29;20277;-82
2022/07/22 02:05:14;;;;;;;4.07;3.78;;;;;;;;;;4955397;28;20752;-80
2022/07/22 02:07:40;;;;;;;5.72;4.50;;;;;;;;;;4939889;29;20222;-82
2022/07/22 02:10:09;;;;;;;5.47;5.07;;;;;;;;;;4938753;28;20234;-83
2022/07/22 02:12:37;;;;;;;5.55;5.05;;;;;;;;;;4925182;29;20230;-83
2022/07/22 02:15:05;;;;;;;6.20;5.70;;;;;;;;;;4936751;28;20245;-83
2022/07/22 02:17:32;;;;;;;6.72;6.13;;;;;;;;;;4924401;29;20219;-84
2022/07/22 02:19:59;;;;;;;8.35;7.05;;;;;;;;;;4911196;29;20229;-85
2022/07/22 02:22:25;;;;;;;8.13;7.32;;;;;;;;;;4922970;28;20734;-83
2022/07/22 02:24:51;;;;;;;9.75;8.95;;;;;;;;;;4906969;29;20223;-82
2022/07/22 02:27:17;;;;;;;10.48;9.50;;;;;;;;;;4944659;28;20265;-83
2022/07/22 02:29:43;;;;;;;10.90;9.90;;;;;;;;;;4930815;29;20234;-80
2022/07/22 02:32:09;;;;;;;11.07;10.10;;;;;;;;;;4920688;28;20235;-83
2022/07/22 02:34:36;;;;;;;11.48;10.48;;;;;;;;;;4952106;29;20294;-80
2022/07/22 02:37:02;;;;;;;11.43;10.50;;;;;;;;;;4931683;29;20223;-81
2022/07/22 02:39:27;;;;;;;10.90;9.88;;;;;;;;;;4914911;29;20222;-83
2022/07/22 02:41:53;;;;;;;10.63;9.63;;;;;;;;;;4922862;29;20231;-83
2022/07/22 02:44:19;;;;;;;12.02;10.93;;;;;;;;;;4919229;29;20648;-83
2022/07/22 02:46:44;;;;;;;11.73;10.65;;;;;;;;;;4937391;29;20226;-82
2022/07/22 02:49:15;;;;;;;11.48;10.30;;;;;;;;;;4912374;28;20223;-84
2022/07/22 02:51:40;;;;;;;10.25;7.88;;;;;;;;;;4900242;29;20230;-81
2022/07/22 02:54:07;;;;;;;10.10;9.20;;;;;;;;;;4914071;29;20735;-83
2022/07/22 02:56:32;;;;;;;10.27;9.27;;;;;;;;;;4938892;29;20230;-82
2022/07/22 02:58:58;;;;;;;11.38;9.40;;;;;;;;;;4938370;29;20222;-83
2022/07/22 03:01:24;;;;;;;11.73;10.52;;;;;;;;;;4920933;29;20229;-84
2022/07/22 03:03:56;;;;;;;10.77;9.45;;;;;;;;;;4948162;29;20223;-83
2022/07/22 03:06:25;;;;;;;11.40;9.25;;;;;;;;;;4920763;28;20309;-85
2022/07/22 03:09:10;;;;;;;10.55;9.55;;;;;;;;;;4923962;29;20223;-83
2022/07/22 03:11:41;;;;;;;10.57;9.38;;;;;;;;;;4907866;29;20306;-83
2022/07/22 03:14:07;;;;;;;9.55;8.50;;;;;;;;;;4944031;28;20227;-81
2022/07/22 03:16:33;;;;;;;8.88;7.93;;;;;;;;;;4944199;29;20227;-81
2022/07/22 03:18:58;;;;;;;7.38;6.57;;;;;;;;;;4968301;28;20292;-81
2022/07/22 03:21:24;;;;;;;6.55;5.35;;;;;;;;;;4947553;29;20219;-84
2022/07/22 03:23:53;;;;;;;5.70;4.65;;;;;;;;;;4919134;29;20257;-81
2022/07/22 03:26:23;;;;;;;4.65;4.22;;;;;;;;;;4930404;28;20924;-80
2022/07/22 03:28:51;;;;;;;5.82;3.95;;;;;;;;;;4947867;29;20261;-81
2022/07/22 03:31:17;;;;;;;4.60;3.92;;;;;;;;;;4930566;28;20214;-81
2022/07/22 03:33:43;;;;;;;3.90;3.20;;;;;;;;;;4950537;28;20235;-80
2022/07/22 03:36:12;;;;;;;3.85;3.30;;;;;;;;;;4942340;28;20223;-84
2022/07/22 03:38:40;;;;;;;5.47;3.28;;;;;;;;;;4924472;29;20229;-80
2022/07/22 03:41:07;;;;;;;5.50;3.22;;;;;;;;;;4909363;29;20231;-81
2022/07/22 03:43:32;;;;;;;3.60;3.30;;;;;;;;;;4922710;29;20238;-82
2022/07/22 03:46:00;;;;;;;5.38;3.50;;;;;;;;;;4925875;29;20301;-82
2022/07/22 03:48:26;;;;;;;6.55;3.55;;;;;;;;;;4919683;29;20230;-82
2022/07/22 03:50:54;;;;;;;5.97;3.80;;;;;;;;;;4952422;28;20659;-82
2022/07/22 03:53:21;;;;;;;4.15;3.75;;;;;;;;;;4936140;29;20705;-82
2022/07/22 03:55:47;;;;;;;6.40;4.60;;;;;;;;;;4947871;29;20317;-80
2022/07/22 03:58:13;;;;;;;9.05;5.78;;;;;;;;;;4941472;28;20392;-80
2022/07/22 04:00:38;;;;;;;6.10;5.05;;;;;;;;;;4926470;29;20226;-80
2022/07/22 04:03:05;;;;;;;7.65;5.30;;;;;;;;;;4913273;28;20374;-81
2022/07/22 04:05:49;;;;;;;8.02;5.65;;;;;;;;;;4953530;29;20229;-80
2022/07/22 04:08:24;;;;;;;7.82;5.53;;;;;;;;;;4923557;29;20304;-78
2022/07/22 04:10:49;;;;;;;8.65;5.70;;;;;;;;;;4939448;29;20707;-79
2022/07/22 04:13:15;;;;;;;8.65;6.25;;;;;;;;;;4943709;28;20313;-82
2022/07/22 04:15:46;;;;;;;8.77;5.57;;;;;;;;;;4941216;29;20634;-82
2022/07/22 04:18:11;;;;;;;10.63;6.03;;;;;;;;;;4937873;29;20235;-82
2022/07/22 04:20:37;;;;;;;7.57;6.78;;;;;;;;;;4941018;29;20222;-82
2022/07/22 04:23:28;;;;;;;11.05;6.93;;;;;;;;;;4927931;29;20266;-81
2022/07/22 04:26:07;;;;;;;7.20;6.50;;;;;;;;;;4921937;28;20230;-83
2022/07/22 04:28:36;;;;;;;6.85;6.13;;;;;;;;;;4936924;29;20246;-81
2022/07/22 04:31:02;;;;;;;8.18;6.43;;;;;;;;;;4914166;29;20238;-82
2022/07/22 04:33:33;;;;;;;7.07;6.38;;;;;;;;;;4921861;29;20245;-84
2022/07/22 04:36:02;;;;;;;6.75;5.93;;;;;;;;;;4946813;29;20231;-81
2022/07/22 04:38:28;;;;;;;6.60;5.95;;;;;;;;;;4914187;29;20301;-83
2022/07/22 04:41:01;;;;;;;5.85;5.20;;;;;;;;;;4916973;29;20294;-83
2022/07/22 04:43:26;;;;;;;5.63;5.03;;;;;;;;;;4928873;29;20233;-82
2022/07/22 04:45:52;;;;;;;6.53;5.28;;;;;;;;;;4916060;29;20223;-83
2022/07/22 04:48:19;;;;;;;6.80;4.95;;;;;;;;;;4920978;29;20223;-82
2022/07/22 04:50:45;;;;;;;6.53;4.55;;;;;;;;;;4951969;29;20219;-82
2022/07/22 04:53:10;;;;;;;5.10;4.20;;;;;;;;;;4949283;29;20302;-80
2022/07/22 04:55:36;;;;;;;4.63;4.30;;;;;;;;;;4932398;29;20700;-84
2022/07/22 04:58:02;;;;;;;7.60;5.10;;;;;;;;;;4914666;29;20711;-85
2022/07/22 05:00:30;;;;;;;6.10;5.32;;;;;;;;;;4919280;29;20238;-82
2022/07/22 05:02:55;;;;;;;7.88;6.72;;;;;;;;;;4945934;29;20313;-82
2022/07/22 05:05:21;;;;;;;11.32;7.30;;;;;;;;;;4928077;28;20302;-82
2022/07/22 05:07:47;;;;;;;8.57;7.13;;;;;;;;;;4961189;29;20577;-83
2022/07/22 05:10:12;;;;;;;9.52;7.43;;;;;;;;;;4944680;29;21051;-82
2022/07/22 05:12:40;;;;;;;8.55;7.60;;;;;;;;;;4935045;29;20705;-80
2022/07/22 05:15:09;;;;;;;7.68;6.90;;;;;;;;;;4934943;29;20257;-84
2022/07/22 05:17:34;;;;;;;10.70;7.72;;;;;;;;;;4934358;29;20226;-82
2022/07/22 05:20:10;;;;;;;11.02;7.47;;;;;;;;;;4944301;28;20274;-82
2022/07/22 05:22:38;;;;;;;10.93;7.88;;;;;;;;;;4931902;29;20223;-81
2022/07/22 05:25:08;;;;;;;9.38;7.30;;;;;;;;;;4930736;28;20253;-81
2022/07/22 05:27:38;;;;;;;9.70;8.05;;;;;;;;;;4900528;29;20254;-83
2022/07/22 05:30:08;;;;;;;11.38;7.80;;;;;;;;;;4918649;28;20226;-83
2022/07/22 05:32:37;;;;;;;8.98;7.72;;;;;;;;;;4929114;29;20247;-81
2022/07/22 05:35:05;;;;;;;8.82;7.35;;;;;;;;;;4917349;28;20319;-82
2022/07/22 05:37:33;;;;;;;12.18;7.85;;;;;;;;;;4943047;29;20252;-84
2022/07/22 05:39:58;;;;;;;10.43;8.50;;;;;;;;;;4943937;29;20771;-83
2022/07/22 05:42:24;;;;;;;12.55;7.97;;;;;;;;;;4912780;28;20314;-81
2022/07/22 05:44:49;;;;;;;13.90;8.60;;;;;;;;;;4917267;29;20231;-81
2022/07/22 05:47:15;;;;;;;11.93;7.63;;;;;;;;;;4912758;28;20210;-82
2022/07/22 05:49:40;;;;;;;13.98;7.72;;;;;;;;;;4948650;29;20236;-81
2022/07/22 05:52:06;;;;;;;12.55;7.50;;;;;;;;;;4912518;28;20352;-82
2022/07/22 05:54:32;;;;;;;8.85;7.95;;;;;;;;;;4941938;29;20238;-84
2022/07/22 05:56:57;;;;;;;11.82;8.60;;;;;;;;;;4929655;29;20229;-82
2022/07/22 05:59:23;;;;;;;11.57;7.45;;;;;;;;;;4947017;29;20214;-82
2022/07/22 06:01:54;;;;;;;9.68;7.55;;;;;;;;;;4925463;29;20215;-82
2022/07/22 06:04:34;;;;;;;8.70;6.90;;;;;;;;;;4917174;29;20309;-83
2022/07/22 06:07:00;;;;;;;14.63;7.90;;;;;;;;;;4913822;29;20245;-84
2022/07/22 06:09:26;;;;;;;9.45;7.22;;;;;;;;;;4907084;29;20224;-85
2022/07/22 06:11:54;;;;;;;11.50;6.88;;;;;;;;;;4922906;29;20230;-82
2022/07/22 06:14:19;;;;;;;10.00;6.55;;;;;;;;;;4894414;29;20226;-81
2022/07/22 06:16:46;;;;;;;12.63;6.78;;;;;;;;;;4921091;29;20246;-82
2022/07/22 06:19:12;;;;;;;7.82;6.30;;;;;;;;;;4911627;29;20223;-82
2022/07/22 06:21:38;;;;;;;15.55;7.05;;;;;;;;;;4931790;29;20229;-82
2022/07/22 06:24:05;;;;;;;8.25;5.70;;;;;;;;;;4923630;28;20219;-84
2022/07/22 06:26:31;;;;;;;11.07;5.88;;;;;;;;;;4924591;29;20237;-84
2022/07/22 06:28:59;;;;;;;9.90;6.00;;;;;;;;;;4909321;29;20238;-83
2022/07/22 06:31:25;;;;;;;10.77;5.85;;;;;;;;;;4924165;28;20319;-83
2022/07/22 06:33:50;;;;;;;9.18;5.47;;;;;;;;;;4924783;29;20235;-83
2022/07/22 06:36:18;;;;;;;11.02;5.63;;;;;;;;;;4937628;29;20220;-82
2022/07/22 06:38:44;;;;;;;12.15;5.97;;;;;;;;;;4937767;29;20604;-82
2022/07/22 06:41:21;;;;;;;9.93;6.30;;;;;;;;;;4957768;28;20219;-82
2022/07/22 06:44:17;;;;;;;10.60;5.53;;;;;;;;;;4941533;28;20298;-84
2022/07/22 06:46:46;;;;;;;11.75;5.75;;;;;;;;;;4911339;29;20241;-82
2022/07/22 06:49:15;;;;;;;12.07;5.80;;;;;;;;;;4944363;29;20294;-83
2022/07/22 06:51:44;;;;;;;7.85;5.40;;;;;;;;;;4941354;29;20614;-83
2022/07/22 06:54:13;;;;;;;13.25;5.70;;;;;;;;;;4908994;28;20313;-82
2022/07/22 06:56:41;;;;;;;10.35;5.53;;;;;;;;;;4905574;29;20226;-82
2022/07/22 06:59:12;;;;;;;10.10;5.50;;;;;;;;;;4937399;28;20229;-82
2022/07/22 07:01:37;;;;;;;8.65;5.35;;;;;;;;;;4926060;29;20226;-81
2022/07/22 07:04:03;;;;;;;13.00;5.50;;;;;;;;;;4940731;28;20227;-83
2022/07/22 07:06:31;;;;;;;11.57;5.53;;;;;;;;;;4912510;29;20218;-84
2022/07/22 07:09:09;;;;;;;12.55;5.40;;;;;;;;;;4930049;29;20219;-82
2022/07/22 07:11:35;;;;;;;11.30;5.57;;;;;;;;;;4924451;29;20443;-82
2022/07/22 07:14:07;;;;;;;14.95;5.10;;;;;;;;;;4930218;28;20237;-84
2022/07/22 07:16:32;;;;;;;9.27;4.78;;;;;;;;;;4958576;29;20314;-83
2022/07/22 07:19:00;;;;;;;7.57;4.22;;;;;;;;;;4942094;29;20219;-83
2022/07/22 07:21:26;;;;;;;10.88;4.85;;;;;;;;;;4942408;29;20220;-83
2022/07/22 07:23:54;;;;;;;7.38;4.28;;;;;;;;;;4923177;29;20257;-84
2022/07/22 07:26:19;;;;;;;10.27;4.13;;;;;;;;;;4923640;28;20227;-83
2022/07/22 07:28:50;;;;;;;9.77;4.30;;;;;;;;;;4925802;29;20243;-83
2022/07/22 07:31:26;;;;;;;9.65;4.10;;;;;;;;;;4942694;28;20222;-83
2022/07/22 07:33:53;;;;;;;12.30;3.97;;;;;;;;;;4943970;29;20235;-84
2022/07/22 07:36:19;;;;;;;5.43;2.90;;;;;;;;;;4926954;28;20269;-83
2022/07/22 07:38:48;;;;;;;12.02;3.65;;;;;;;;;;4943447;29;20230;-82
2022/07/22 07:41:16;;;;;;;7.32;3.13;;;;;;;;;;4938654;28;20293;-83
2022/07/22 07:43:42;;;;;;;7.57;3.08;;;;;;;;;;4940865;29;20593;-82
2022/07/22 07:46:08;;;;;;;8.27;3.17;;;;;;;;;;4918528;29;20309;-83
2022/07/22 07:48:33;;;;;;;7.47;3.10;;;;;;;;;;4918230;29;20285;-84
2022/07/22 07:50:59;;;;;;;7.65;2.80;;;;;;;;;;4945418;29;20226;-83
2022/07/22 07:53:25;;;;;;;6.97;3.58;;;;;;;;;;4943678;28;20640;-81
2022/07/22 07:55:52;;;;;;;12.10;3.22;;;;;;;;;;4929751;29;20230;-83
2022/07/22 07:58:20;;;;;;;9.32;3.17;;;;;;;;;;4927108;29;20238;-81
2022/07/22 08:00:46;;;;;;;7.50;3.40;;;;;;;;;;4928444;29;20223;-83
2022/07/22 08:03:12;;;;;;;9.80;3.15;;;;;;;;;;4943002;28;20234;-80
2022/07/22 08:05:41;;;;;;;7.88;3.10;;;;;;;;;;4928409;29;20289;-81
2022/07/22 08:08:13;;;;;;;5.88;3.10;;;;;;;;;;4942000;28;20222;-82
2022/07/22 08:10:42;;;;;;;5.25;2.63;;;;;;;;;;4913069;29;20285;-83
2022/07/22 08:13:35;;;;;;;7.35;2.95;;;;;;;;;;4938024;29;20218;-82
2022/07/22 08:16:21;;;;;;;5.30;2.70;;;;;;;;;;4935911;29;20354;-82
2022/07/22 08:18:47;;;;;;;11.30;3.20;;;;;;;;;;4925015;29;20231;-81
2022/07/22 08:21:16;;;;;;;7.10;2.80;;;;;;;;;;4920001;28;20241;-81
2022/07/22 08:24:02;;;;;;;6.07;2.65;;;;;;;;;;4946267;28;20218;-82
2022/07/22 08:26:28;;;;;;;6.15;2.67;;;;;;;;;;4930472;29;20233;-82
2022/07/22 08:28:56;;;;;;;7.78;2.70;;;;;;;;;;4943554;29;20219;-81
2022/07/22 08:31:22;;;;;;;4.18;2.40;;;;;;;;;;4938272;28;20993;-82
2022/07/22 08:33:48;;;;;;;3.63;2.00;;;;;;;;;;4927989;29;20237;-79
2022/07/22 08:36:16;;;;;;;3.53;2.17;;;;;;;;;;4966167;28;20227;-80
2022/07/22 08:38:44;;;;;;;5.55;2.00;;;;;;;;;;4941457;29;20287;-79
2022/07/22 08:41:12;;;;;;;4.07;2.15;;;;;;;;;;4939660;28;20227;-78
2022/07/22 08:43:42;;;;;;;7.10;2.28;;;;;;;;;;4940329;28;20217;-80
2022/07/22 08:46:08;;;;;;;5.32;2.25;;;;;;;;;;4943515;28;20222;-81
2022/07/22 08:48:52;;;;;;;7.05;2.30;;;;;;;;;;4976524;28;20253;-81
2022/07/22 08:51:42;;;;;;;4.68;2.10;;;;;;;;;;4964906;29;20230;-81
2022/07/22 08:54:18;;;;;;;6.25;2.30;;;;;;;;;;4974544;29;20254;-79
2022/07/22 08:56:49;;;;;;;6.85;2.53;;;;;;;;;;4957208;29;20239;-80
2022/07/22 08:59:18;;;;;;;4.13;2.15;;;;;;;;;;4970433;28;20280;-81
2022/07/22 09:02:05;;;;;;;4.57;2.67;;;;;;;;;;4961642;29;20635;-81
2022/07/22 09:04:58;;;;;;;7.00;2.50;;;;;;;;;;4957857;29;20217;-81
2022/07/22 09:07:27;;;;;;;5.97;2.72;;;;;;;;;;4955143;28;20739;-81
2022/07/22 09:09:55;;;;;;;8.23;2.78;;;;;;;;;;4953353;29;20601;-82
2022/07/22 09:12:23;;;;;;;7.35;3.13;;;;;;;;;;4945648;28;20297;-83
2022/07/22 09:14:59;;;;;;;5.28;3.00;;;;;;;;;;4932181;29;20642;-85
2022/07/22 09:17:57;;;;;;;4.75;2.95;;;;;;;;;;4863303;29;20581;-83
2022/07/22 09:20:32;;;;;;;3.97;2.60;;;;;;;;;;4924678;29;20222;-84
2022/07/22 09:23:20;;;;;;;5.38;3.00;;;;;;;;;;4961878;28;20241;-82
2022/07/22 09:25:47;;;;;;;5.45;2.85;;;;;;;;;;4925814;29;20224;-81
2022/07/22 09:28:26;;;;;;;7.22;2.80;;;;;;;;;;4946450;28;20222;-82
2022/07/22 09:31:26;;;;;;;8.48;3.15;;;;;;;;;;4878555;29;20313;-82
2022/07/22 09:33:54;;;;;;;5.10;3.05;;;;;;;;;;4933123;29;20222;-83
2022/07/22 09:36:22;;;;;;;7.53;3.88;;;;;;;;;;4931041;28;20298;-82
2022/07/22 09:38:49;;;;;;;5.82;2.97;;;;;;;;;;4929792;29;20223;-82
2022/07/22 09:41:19;;;;;;;3.22;2.20;;;;;;;;;;4958833;28;20227;-84
2022/07/22 09:43:48;;;;;;;6.22;2.47;;;;;;;;;;4923647;29;20305;-83
2022/07/22 09:46:14;;;;;;;4.10;2.70;;;;;;;;;;4943700;29;20230;-82
2022/07/22 09:49:05;;;;;;;3.45;2.00;;;;;;;;;;4919478;28;20253;-82
2022/07/22 09:51:56;;;;;;;4.65;2.58;;;;;;;;;;4932592;29;20268;-82
2022/07/22 09:54:31;;;;;;;3.97;2.58;;;;;;;;;;4930751;29;20318;-81
2022/07/22 09:56:57;;;;;;;5.50;2.78;;;;;;;;;;4946757;29;20233;-82
2022/07/22 09:59:23;;;;;;;6.18;2.65;;;;;;;;;;4961883;28;20696;-84
2022/07/22 10:01:58;;;;;;;5.15;2.80;;;;;;;;;;4916024;29;20284;-84
2022/07/22 10:04:24;;;;;;;3.72;2.60;;;;;;;;;;4928476;28;20650;-83
2022/07/22 10:06:50;;;;;;;3.10;2.78;;;;;;;;;;4918183;29;21218;-82
2022/07/22 10:09:19;;;;;;;3.67;2.72;;;;;;;;;;4944611;28;20230;-83
2022/07/22 10:11:52;;;;;;;5.25;2.72;;;;;;;;;;4916062;29;20230;-83
2022/07/22 10:14:20;;;;;;;6.05;2.97;;;;;;;;;;4909561;29;20376;-81
2022/07/22 10:16:48;;;;;;;6.38;2.40;;;;;;;;;;4928187;29;20572;-81
2022/07/22 10:19:17;;;;;;;4.65;2.42;;;;;;;;;;4914442;28;20266;-83
2022/07/22 10:21:43;;;;;;;3.85;2.17;;;;;;;;;;4941520;29;20623;-82
2022/07/22 10:24:18;;;;;;;3.47;2.22;;;;;;;;;;4942708;28;20242;-82
2022/07/22 10:26:56;;;;;;;5.47;1.85;;;;;;;;;;4940881;29;20233;-81
2022/07/22 10:29:47;;;;;;;4.13;1.92;;;;;;;;;;4924946;28;20226;-82
2022/07/22 10:32:15;;;;;;;4.43;2.25;;;;;;;;;;4942282;28;20227;-84
2022/07/22 10:34:44;;;;;;;3.85;2.20;;;;;;;;;;4930897;29;20267;-83
2022/07/22 10:37:34;;;;;;;5.30;2.30;;;;;;;;;;4935338;28;20313;-81
2022/07/22 10:40:10;;;;;;;4.80;2.45;;;;;;;;;;4925570;29;20243;-82
2022/07/22 10:43:00;;;;;;;3.17;2.38;;;;;;;;;;4935350;29;20313;-82
2022/07/22 10:45:39;;;;;;;5.43;2.90;;;;;;;;;;4957862;28;20635;-84
2022/07/22 10:48:09;;;;;;;5.30;2.50;;;;;;;;;;4957784;28;20234;-81
2022/07/22 10:50:38;;;;;;;5.45;2.85;;;;;;;;;;4928714;29;20223;-83
2022/07/22 10:53:12;;;;;;;4.05;2.60;;;;;;;;;;4930714;28;20226;-83
2022/07/22 10:55:39;;;;;;;6.20;2.55;;;;;;;;;;4942616;29;20237;-82
2022/07/22 10:58:35;;;;;;;4.85;2.60;;;;;;;;;;4941512;28;20226;-81
2022/07/22 11:01:08;;;;;;;3.97;2.53;;;;;;;;;;4953706;29;20265;-81
2022/07/22 11:03:34;;;;;;;4.57;2.55;;;;;;;;;;4927855;29;20227;-83
2022/07/22 11:06:19;;;;;;;4.32;2.60;;;;;;;;;;4921166;29;20226;-83
2022/07/22 11:08:46;;;;;;;7.63;2.70;;;;;;;;;;4952960;29;20271;-83
2022/07/22 11:11:14;;;;;;;3.42;2.35;;;;;;;;;;4935212;28;20274;-81
2022/07/22 11:13:40;;;;;;;5.10;2.20;;;;;;;;;;4915282;29;20234;-80
2022/07/22 11:16:25;;;;;;;4.28;2.25;;;;;;;;;;4961252;28;20231;-82
2022/07/22 11:18:53;;;;;;;4.20;2.25;;;;;;;;;;4937589;29;20235;-83
2022/07/22 11:21:20;;;;;;;6.30;2.50;;;;;;;;;;4963083;28;20210;-80
2022/07/22 11:23:47;;;;;;;4.88;2.20;;;;;;;;;;4901564;28;20222;-80
2022/07/22 11:26:14;;;;;;;3.70;2.38;;;;;;;;;;4918061;28;20222;-83
2022/07/22 11:28:45;;;;;;;3.67;2.20;;;;;;;;;;4928745;29;20219;-83
2022/07/22 11:31:14;;;;;;;5.07;2.28;;;;;;;;;;4915783;28;20224;-81
2022/07/22 11:33:46;;;;;;;5.15;2.33;;;;;;;;;;4924691;29;20257;-84
2022/07/22 11:36:11;;;;;;;3.38;2.15;;;;;;;;;;4944080;28;20235;-83
2022/07/22 11:38:49;;;;;;;4.07;2.25;;;;;;;;;;4909650;28;20226;-83
2022/07/22 11:41:18;;;;;;;5.10;2.55;;;;;;;;;;4934109;28;20305;-83
2022/07/22 11:43:45;;;;;;;3.83;2.38;;;;;;;;;;4924826;29;20235;-80
2022/07/22 11:46:13;;;;;;;3.75;2.33;;;;;;;;;;4920714;29;20226;-82
2022/07/22 11:48:40;;;;;;;6.70;2.38;;;;;;;;;;4920292;29;20591;-84
2022/07/22 11:51:06;;;;;;;5.20;2.85;;;;;;;;;;4935000;29;20742;-82
2022/07/22 11:53:31;;;;;;;3.35;2.63;;;;;;;;;;4935247;29;20256;-82
2022/07/22 11:56:00;;;;;;;4.05;2.30;;;;;;;;;;4938434;29;20234;-79
2022/07/22 11:58:42;;;;;;;3.67;2.25;;;;;;;;;;4936385;29;20222;-83
2022/07/22 12:01:15;;;;;;;6.43;2.45;;;;;;;;;;4903086;29;20235;-83
2022/07/22 12:03:44;;;;;;;3.95;2.30;;;;;;;;;;4924382;29;20259;-84
2022/07/22 12:06:10;;;;;;;3.63;2.70;;;;;;;;;;4921748;28;20212;-84
2022/07/22 12:08:47;;;;;;;4.32;2.53;;;;;;;;;;4918740;29;20713;-84
2022/07/22 12:11:15;;;;;;;2.72;2.25;;;;;;;;;;4914257;29;20585;-84
2022/07/22 12:13:46;;;;;;;3.45;2.67;;;;;;;;;;4906957;29;20234;-84
2022/07/22 12:16:21;;;;;;;2.95;2.25;;;;;;;;;;4925784;28;20227;-84
2022/07/22 12:19:00;;;;;;;4.22;2.20;;;;;;;;;;4919863;29;20275;-83
2022/07/22 12:21:31;;;;;;;5.50;2.47;;;;;;;;;;4919109;29;20223;-82
2022/07/22 12:24:02;;;;;;;3.72;3.03;;;;;;;;;;4938449;29;20302;-81
2022/07/22 12:26:38;;;;;;;5.97;2.40;;;;;;;;;;4904712;29;20290;-84
2022/07/22 12:29:13;;;;;;;5.18;2.60;;;;;;;;;;4924752;28;20231;-85
2022/07/22 12:31:47;;;;;;;4.63;2.90;;;;;;;;;;4954907;28;20218;-83
2022/07/22 12:34:16;;;;;;;4.93;2.80;;;;;;;;;;4926623;28;20270;-83
2022/07/22 12:36:46;;;;;;;3.28;2.50;;;;;;;;;;4926067;29;20222;-81
2022/07/22 12:39:18;;;;;;;7.05;3.22;;;;;;;;;;4958838;28;20206;-83
2022/07/22 12:41:51;;;;;;;3.10;2.63;;;;;;;;;;4942295;29;20238;-81
2022/07/22 12:44:24;;;;;;;4.45;3.08;;;;;;;;;;4936896;28;20355;-84
2022/07/22 12:46:52;;;;;;;4.45;2.90;;;;;;;;;;4911143;29;20231;-84
2022/07/22 12:49:20;;;;;;;4.13;2.80;;;;;;;;;;4909066;28;20609;-82
2022/07/22 12:52:08;;;;;;;5.50;2.72;;;;;;;;;;4941800;29;20247;-83
2022/07/22 12:54:37;;;;;;;5.45;2.90;;;;;;;;;;4955740;29;20704;-84
2022/07/22 12:57:03;;;;;;;6.10;2.55;;;;;;;;;;4948835;28;20728;-83
2022/07/22 12:59:31;;;;;;;4.80;2.58;;;;;;;;;;4939831;28;20218;-85
2022/07/22 13:02:00;;;;;;;4.28;2.55;;;;;;;;;;4927128;28;20233;-84
2022/07/22 13:04:25;;;;;;;3.03;2.20;;;;;;;;;;4917089;29;20362;-84
2022/07/22 13:06:51;;;;;;;4.15;2.60;;;;;;;;;;4960405;28;20234;-87
2022/07/22 13:09:18;;;;;;;2.55;2.20;;;;;;;;;;4961197;28;20223;-82
2022/07/22 13:11:45;;;;;;;3.67;2.50;;;;;;;;;;4928660;29;20294;-84
2022/07/22 13:14:11;;;;;;;4.00;2.35;;;;;;;;;;4927961;28;20294;-84
2022/07/22 13:16:39;;;;;;;2.58;2.05;;;;;;;;;;4962032;29;20238;-83
2022/07/22 13:19:04;;;;;;;5.93;2.53;;;;;;;;;;4913457;29;20239;-84
2022/07/22 13:21:32;;;;;;;5.43;2.15;;;;;;;;;;4930945;29;20298;-83
2022/07/22 13:23:58;;;;;;;3.67;2.30;;;;;;;;;;4928459;29;20296;-81
2022/07/22 13:26:25;;;;;;;3.97;2.42;;;;;;;;;;4937004;29;20231;-81
2022/07/22 13:28:53;;;;;;;5.88;2.38;;;;;;;;;;4927308;29;20226;-82
2022/07/22 13:31:19;;;;;;;3.60;1.90;;;;;;;;;;4914962;29;20286;-83
2022/07/22 13:33:46;;;;;;;7.13;2.50;;;;;;;;;;4928295;29;20227;-82
2022/07/22 13:36:17;;;;;;;4.55;2.42;;;;;;;;;;4927309;29;20241;-82
2022/07/22 13:38:42;;;;;;;5.28;2.78;;;;;;;;;;4944576;29;20601;-82
2022/07/22 13:41:16;;;;;;;4.10;2.40;;;;;;;;;;4943626;28;20230;-84
2022/07/22 13:43:44;;;;;;;3.20;2.67;;;;;;;;;;4928705;29;20223;-85
2022/07/22 13:46:10;;;;;;;2.65;2.15;;;;;;;;;;4928248;28;20386;-85
2022/07/22 13:48:36;;;;;;;5.25;2.10;;;;;;;;;;4921076;29;20226;-81
2022/07/22 13:51:04;;;;;;;3.83;1.98;;;;;;;;;;4940386;29;20235;-85
2022/07/22 13:53:30;;;;;;;2.83;1.92;;;;;;;;;;4935139;29;20222;-82
2022/07/22 13:55:58;;;;;;;5.15;2.10;;;;;;;;;;4913452;29;20691;-82
2022/07/22 13:58:23;;;;;;;2.70;2.00;;;;;;;;;;4943507;28;20226;-86
2022/07/22 14:00:49;;;;;;;3.97;2.08;;;;;;;;;;4942862;29;20234;-84
2022/07/22 14:03:14;;;;;;;3.38;2.38;;;;;;;;;;4939876;28;20214;-84
2022/07/22 14:05:42;;;;;;;6.00;2.60;;;;;;;;;;4941304;29;20313;-82
2022/07/22 14:08:08;;;;;;;2.90;2.17;;;;;;;;;;4923834;29;20227;-84
2022/07/22 14:10:35;;;;;;;4.60;2.60;;;;;;;;;;4942104;29;20233;-85
2022/07/22 14:13:01;;;;;;;4.32;2.42;;;;;;;;;;4927710;29;20692;-83
2022/07/22 14:15:26;;;;;;;4.10;2.70;;;;;;;;;;4919104;29;20233;-83
2022/07/22 14:17:57;;;;;;;4.43;2.50;;;;;;;;;;4942176;29;20231;-83
2022/07/22 14:20:25;;;;;;;5.88;2.47;;;;;;;;;;4943084;28;20230;-85
2022/07/22 14:22:53;;;;;;;4.05;2.60;;;;;;;;;;4927290;29;20633;-84
2022/07/22 14:25:20;;;;;;;4.25;2.58;;;;;;;;;;4918373;29;20249;-83
2022/07/22 14:27:45;;;;;;;3.03;2.42;;;;;;;;;;4927081;29;20286;-86
2022/07/22 14:30:12;;;;;;;5.10;2.58;;;;;;;;;;4925229;29;20231;-85
2022/07/22 14:32:40;;;;;;;4.90;2.85;;;;;;;;;;4923104;29;20263;-84
2022/07/22 14:35:06;;;;;;;5.90;2.88;;;;;;;;;;4944847;29;20230;-84
2022/07/22 14:37:34;;;;;;;6.03;2.90;;;;;;;;;;4946521;29;20677;-81
2022/07/22 14:40:00;;;;;;;5.82;2.85;;;;;;;;;;4934481;29;20610;-83
2022/07/22 14:42:26;;;;;;;3.78;2.65;;;;;;;;;;4931559;28;20237;-85
2022/07/22 14:44:54;;;;;;;4.90;3.00;;;;;;;;;;4924662;29;20231;-83
2022/07/22 14:47:22;;;;;;;4.78;2.90;;;;;;;;;;4940584;29;20238;-81
2022/07/22 14:49:50;;;;;;;5.78;3.15;;;;;;;;;;4974121;28;20227;-79